sensor_id;sensor_type;location;lat;lon;timestamp;P1;durP1;ratioP1;P2;durP2;ratioP2
13731;SDS011;6937;56.096;12.664;2024-03-02T00:00:09;86.30;;;50.35;;
13731;SDS011;6937;56.096;12.664;2024-03-02T00:02:44;82.93;;;50.33;;
13731;SDS011;6937;56.096;12.664;2024-03-02T00:05:11;85.18;;;50.13;;
13731;SDS011;6937;56.096;12.664;2024-03-02T00:07:41;91.60;;;53.72;;
13731;SDS011;6937;56.096;12.664;2024-03-02T00:10:08;93.43;;;52.40;;
13731;SDS011;6937;56.096;12.664;2024-03-02T00:12:38;83.80;;;49.67;;
13731;SDS011;6937;56.096;12.664;2024-03-02T00:15:27;92.95;;;51.88;;
13731;SDS011;6937;56.096;12.664;2024-03-02T00:18:02;78.70;;;46.53;;
13731;SDS011;6937;56.096;12.664;2024-03-02T00:20:29;81.35;;;50.53;;
13731;SDS011;6937;56.096;12.664;2024-03-02T00:23:05;77.80;;;47.75;;
13731;SDS011;6937;56.096;12.664;2024-03-02T00:25:42;81.93;;;50.08;;
13731;SDS011;6937;56.096;12.664;2024-03-02T00:28:19;85.15;;;49.22;;
13731;SDS011;6937;56.096;12.664;2024-03-02T00:30:50;82.68;;;48.95;;
13731;SDS011;6937;56.096;12.664;2024-03-02T00:33:46;84.57;;;49.22;;
13731;SDS011;6937;56.096;12.664;2024-03-02T00:36:14;77.20;;;47.55;;
13731;SDS011;6937;56.096;12.664;2024-03-02T00:38:46;75.05;;;47.55;;
13731;SDS011;6937;56.096;12.664;2024-03-02T00:41:30;89.30;;;51.53;;
13731;SDS011;6937;56.096;12.664;2024-03-02T00:43:57;74.88;;;46.08;;
13731;SDS011;6937;56.096;12.664;2024-03-02T00:46:22;75.53;;;46.20;;
13731;SDS011;6937;56.096;12.664;2024-03-02T00:48:55;85.45;;;51.03;;
13731;SDS011;6937;56.096;12.664;2024-03-02T00:51:25;72.85;;;46.97;;
13731;SDS011;6937;56.096;12.664;2024-03-02T00:53:52;84.88;;;49.50;;
13731;SDS011;6937;56.096;12.664;2024-03-02T00:56:21;86.53;;;49.00;;
13731;SDS011;6937;56.096;12.664;2024-03-02T00:58:47;84.70;;;50.70;;
13731;SDS011;6937;56.096;12.664;2024-03-02T01:01:13;70.35;;;44.63;;
13731;SDS011;6937;56.096;12.664;2024-03-02T01:03:38;84.65;;;48.08;;
13731;SDS011;6937;56.096;12.664;2024-03-02T01:06:04;76.13;;;46.72;;
13731;SDS011;6937;56.096;12.664;2024-03-02T01:08:30;70.18;;;43.28;;
13731;SDS011;6937;56.096;12.664;2024-03-02T01:10:55;70.35;;;45.83;;
13731;SDS011;6937;56.096;12.664;2024-03-02T01:13:21;77.60;;;45.50;;
13731;SDS011;6937;56.096;12.664;2024-03-02T01:15:48;71.47;;;44.75;;
13731;SDS011;6937;56.096;12.664;2024-03-02T01:18:14;76.53;;;47.30;;
13731;SDS011;6937;56.096;12.664;2024-03-02T01:20:39;74.65;;;47.22;;
13731;SDS011;6937;56.096;12.664;2024-03-02T01:23:04;79.00;;;46.92;;
13731;SDS011;6937;56.096;12.664;2024-03-02T01:25:30;83.72;;;48.92;;
13731;SDS011;6937;56.096;12.664;2024-03-02T01:27:55;79.78;;;46.97;;
13731;SDS011;6937;56.096;12.664;2024-03-02T01:30:21;96.13;;;52.83;;
13731;SDS011;6937;56.096;12.664;2024-03-02T01:32:46;76.55;;;46.35;;
13731;SDS011;6937;56.096;12.664;2024-03-02T01:35:12;83.95;;;49.08;;
13731;SDS011;6937;56.096;12.664;2024-03-02T01:37:37;87.00;;;50.92;;
13731;SDS011;6937;56.096;12.664;2024-03-02T01:40:03;91.00;;;50.42;;
13731;SDS011;6937;56.096;12.664;2024-03-02T01:42:34;82.88;;;48.88;;
13731;SDS011;6937;56.096;12.664;2024-03-02T01:45:01;86.25;;;51.53;;
13731;SDS011;6937;56.096;12.664;2024-03-02T01:47:27;77.95;;;49.50;;
13731;SDS011;6937;56.096;12.664;2024-03-02T01:49:52;83.45;;;50.42;;
13731;SDS011;6937;56.096;12.664;2024-03-02T01:52:18;84.78;;;49.83;;
13731;SDS011;6937;56.096;12.664;2024-03-02T01:54:43;86.65;;;51.58;;
13731;SDS011;6937;56.096;12.664;2024-03-02T01:57:09;93.47;;;54.10;;
13731;SDS011;6937;56.096;12.664;2024-03-02T01:59:34;109.82;;;57.80;;
13731;SDS011;6937;56.096;12.664;2024-03-02T02:02:00;105.95;;;56.22;;
13731;SDS011;6937;56.096;12.664;2024-03-02T02:04:26;91.03;;;51.03;;
13731;SDS011;6937;56.096;12.664;2024-03-02T02:06:53;99.88;;;52.92;;
13731;SDS011;6937;56.096;12.664;2024-03-02T02:09:19;114.53;;;56.97;;
13731;SDS011;6937;56.096;12.664;2024-03-02T02:11:44;93.75;;;53.45;;
13731;SDS011;6937;56.096;12.664;2024-03-02T02:14:10;108.00;;;55.75;;
13731;SDS011;6937;56.096;12.664;2024-03-02T02:16:36;93.57;;;53.20;;
13731;SDS011;6937;56.096;12.664;2024-03-02T02:19:01;101.13;;;54.72;;
13731;SDS011;6937;56.096;12.664;2024-03-02T02:21:28;116.95;;;57.80;;
13731;SDS011;6937;56.096;12.664;2024-03-02T02:23:53;108.97;;;58.58;;
13731;SDS011;6937;56.096;12.664;2024-03-02T02:26:19;111.20;;;57.25;;
13731;SDS011;6937;56.096;12.664;2024-03-02T02:28:44;115.28;;;58.85;;
13731;SDS011;6937;56.096;12.664;2024-03-02T02:31:12;119.32;;;58.40;;
13731;SDS011;6937;56.096;12.664;2024-03-02T02:33:40;103.25;;;54.05;;
13731;SDS011;6937;56.096;12.664;2024-03-02T02:36:06;116.97;;;58.70;;
13731;SDS011;6937;56.096;12.664;2024-03-02T02:38:35;106.50;;;56.40;;
13731;SDS011;6937;56.096;12.664;2024-03-02T02:41:03;123.13;;;60.78;;
13731;SDS011;6937;56.096;12.664;2024-03-02T02:43:29;100.95;;;53.28;;
13731;SDS011;6937;56.096;12.664;2024-03-02T02:45:54;106.35;;;55.45;;
13731;SDS011;6937;56.096;12.664;2024-03-02T02:48:20;93.78;;;52.28;;
13731;SDS011;6937;56.096;12.664;2024-03-02T02:50:45;118.00;;;58.70;;
13731;SDS011;6937;56.096;12.664;2024-03-02T02:53:11;111.63;;;56.97;;
13731;SDS011;6937;56.096;12.664;2024-03-02T02:55:36;100.13;;;54.65;;
13731;SDS011;6937;56.096;12.664;2024-03-02T02:58:05;101.97;;;55.20;;
13731;SDS011;6937;56.096;12.664;2024-03-02T03:00:31;119.15;;;57.97;;
13731;SDS011;6937;56.096;12.664;2024-03-02T03:02:56;109.18;;;55.22;;
13731;SDS011;6937;56.096;12.664;2024-03-02T03:05:22;99.75;;;54.60;;
13731;SDS011;6937;56.096;12.664;2024-03-02T03:07:47;90.30;;;52.72;;
13731;SDS011;6937;56.096;12.664;2024-03-02T03:10:16;118.15;;;58.05;;
13731;SDS011;6937;56.096;12.664;2024-03-02T03:12:42;110.03;;;57.58;;
13731;SDS011;6937;56.096;12.664;2024-03-02T03:15:08;112.45;;;55.63;;
13731;SDS011;6937;56.096;12.664;2024-03-02T03:17:35;108.60;;;55.83;;
13731;SDS011;6937;56.096;12.664;2024-03-02T03:20:02;94.85;;;53.50;;
13731;SDS011;6937;56.096;12.664;2024-03-02T03:22:29;94.15;;;52.78;;
13731;SDS011;6937;56.096;12.664;2024-03-02T03:24:54;87.30;;;50.30;;
13731;SDS011;6937;56.096;12.664;2024-03-02T03:27:19;112.88;;;56.60;;
13731;SDS011;6937;56.096;12.664;2024-03-02T03:29:45;98.38;;;54.95;;
13731;SDS011;6937;56.096;12.664;2024-03-02T03:32:10;104.07;;;59.08;;
13731;SDS011;6937;56.096;12.664;2024-03-02T03:34:36;107.50;;;57.20;;
13731;SDS011;6937;56.096;12.664;2024-03-02T03:37:01;90.80;;;52.88;;
13731;SDS011;6937;56.096;12.664;2024-03-02T03:39:27;84.60;;;51.90;;
13731;SDS011;6937;56.096;12.664;2024-03-02T03:41:53;96.72;;;52.65;;
13731;SDS011;6937;56.096;12.664;2024-03-02T03:44:19;96.20;;;52.53;;
13731;SDS011;6937;56.096;12.664;2024-03-02T03:46:44;101.70;;;54.20;;
13731;SDS011;6937;56.096;12.664;2024-03-02T03:49:10;112.32;;;56.67;;
13731;SDS011;6937;56.096;12.664;2024-03-02T03:51:35;105.45;;;56.40;;
13731;SDS011;6937;56.096;12.664;2024-03-02T03:54:01;93.60;;;53.22;;
13731;SDS011;6937;56.096;12.664;2024-03-02T03:56:26;87.82;;;51.58;;
13731;SDS011;6937;56.096;12.664;2024-03-02T03:58:52;109.05;;;55.25;;
13731;SDS011;6937;56.096;12.664;2024-03-02T04:01:17;93.18;;;52.92;;
13731;SDS011;6937;56.096;12.664;2024-03-02T04:03:43;101.07;;;55.67;;
13731;SDS011;6937;56.096;12.664;2024-03-02T04:06:08;116.68;;;58.08;;
13731;SDS011;6937;56.096;12.664;2024-03-02T04:08:33;103.30;;;57.53;;
13731;SDS011;6937;56.096;12.664;2024-03-02T04:10:59;110.70;;;57.20;;
13731;SDS011;6937;56.096;12.664;2024-03-02T04:13:24;103.43;;;56.45;;
13731;SDS011;6937;56.096;12.664;2024-03-02T04:15:49;119.00;;;59.95;;
13731;SDS011;6937;56.096;12.664;2024-03-02T04:18:15;103.18;;;55.72;;
13731;SDS011;6937;56.096;12.664;2024-03-02T04:20:41;96.03;;;52.30;;
13731;SDS011;6937;56.096;12.664;2024-03-02T04:23:07;104.75;;;55.20;;
13731;SDS011;6937;56.096;12.664;2024-03-02T04:25:32;95.80;;;54.00;;
13731;SDS011;6937;56.096;12.664;2024-03-02T04:27:58;90.55;;;54.90;;
13731;SDS011;6937;56.096;12.664;2024-03-02T04:30:23;91.65;;;53.35;;
13731;SDS011;6937;56.096;12.664;2024-03-02T04:32:50;97.22;;;55.03;;
13731;SDS011;6937;56.096;12.664;2024-03-02T04:35:15;95.95;;;55.53;;
13731;SDS011;6937;56.096;12.664;2024-03-02T04:37:41;93.57;;;54.72;;
13731;SDS011;6937;56.096;12.664;2024-03-02T04:40:06;103.32;;;59.88;;
13731;SDS011;6937;56.096;12.664;2024-03-02T04:42:35;92.95;;;56.03;;
13731;SDS011;6937;56.096;12.664;2024-03-02T04:45:01;90.38;;;55.70;;
13731;SDS011;6937;56.096;12.664;2024-03-02T04:47:26;95.75;;;59.10;;
13731;SDS011;6937;56.096;12.664;2024-03-02T04:49:52;98.68;;;59.33;;
13731;SDS011;6937;56.096;12.664;2024-03-02T04:52:17;101.53;;;61.88;;
13731;SDS011;6937;56.096;12.664;2024-03-02T04:54:43;91.85;;;57.03;;
13731;SDS011;6937;56.096;12.664;2024-03-02T04:57:27;92.18;;;59.17;;
13731;SDS011;6937;56.096;12.664;2024-03-02T04:59:52;94.75;;;58.83;;
13731;SDS011;6937;56.096;12.664;2024-03-02T05:02:17;98.15;;;62.63;;
13731;SDS011;6937;56.096;12.664;2024-03-02T05:04:43;99.55;;;63.33;;
13731;SDS011;6937;56.096;12.664;2024-03-02T05:07:08;99.50;;;61.22;;
13731;SDS011;6937;56.096;12.664;2024-03-02T05:09:34;98.90;;;61.97;;
13731;SDS011;6937;56.096;12.664;2024-03-02T05:11:59;106.78;;;65.78;;
13731;SDS011;6937;56.096;12.664;2024-03-02T05:14:56;101.68;;;63.67;;
13731;SDS011;6937;56.096;12.664;2024-03-02T05:17:22;104.25;;;63.90;;
13731;SDS011;6937;56.096;12.664;2024-03-02T05:19:47;109.65;;;66.50;;
13731;SDS011;6937;56.096;12.664;2024-03-02T05:22:13;106.40;;;66.65;;
13731;SDS011;6937;56.096;12.664;2024-03-02T05:24:38;108.32;;;67.15;;
13731;SDS011;6937;56.096;12.664;2024-03-02T05:27:03;106.82;;;67.72;;
13731;SDS011;6937;56.096;12.664;2024-03-02T05:29:29;119.85;;;70.97;;
13731;SDS011;6937;56.096;12.664;2024-03-02T05:31:54;103.53;;;63.45;;
13731;SDS011;6937;56.096;12.664;2024-03-02T05:34:20;107.18;;;65.47;;
13731;SDS011;6937;56.096;12.664;2024-03-02T05:36:45;113.15;;;69.05;;
13731;SDS011;6937;56.096;12.664;2024-03-02T05:39:11;114.22;;;67.13;;
13731;SDS011;6937;56.096;12.664;2024-03-02T05:41:36;107.18;;;65.30;;
13731;SDS011;6937;56.096;12.664;2024-03-02T05:44:03;114.20;;;68.97;;
13731;SDS011;6937;56.096;12.664;2024-03-02T05:46:28;112.88;;;67.20;;
13731;SDS011;6937;56.096;12.664;2024-03-02T05:48:54;109.75;;;68.47;;
13731;SDS011;6937;56.096;12.664;2024-03-02T05:51:19;109.07;;;64.82;;
13731;SDS011;6937;56.096;12.664;2024-03-02T05:53:44;112.57;;;69.55;;
13731;SDS011;6937;56.096;12.664;2024-03-02T05:56:10;114.82;;;69.95;;
13731;SDS011;6937;56.096;12.664;2024-03-02T05:58:37;104.10;;;64.60;;
13731;SDS011;6937;56.096;12.664;2024-03-02T06:01:22;107.97;;;66.88;;
13731;SDS011;6937;56.096;12.664;2024-03-02T06:03:53;113.50;;;68.78;;
13731;SDS011;6937;56.096;12.664;2024-03-02T06:06:22;120.47;;;70.47;;
13731;SDS011;6937;56.096;12.664;2024-03-02T06:08:48;116.13;;;68.05;;
13731;SDS011;6937;56.096;12.664;2024-03-02T06:11:13;113.93;;;67.75;;
13731;SDS011;6937;56.096;12.664;2024-03-02T06:13:38;121.15;;;72.43;;
13731;SDS011;6937;56.096;12.664;2024-03-02T06:16:04;118.88;;;70.13;;
13731;SDS011;6937;56.096;12.664;2024-03-02T06:18:29;123.40;;;70.38;;
13731;SDS011;6937;56.096;12.664;2024-03-02T06:20:55;124.85;;;72.57;;
13731;SDS011;6937;56.096;12.664;2024-03-02T06:23:20;125.60;;;71.32;;
13731;SDS011;6937;56.096;12.664;2024-03-02T06:25:45;121.03;;;70.75;;
13731;SDS011;6937;56.096;12.664;2024-03-02T06:28:11;116.20;;;68.70;;
13731;SDS011;6937;56.096;12.664;2024-03-02T06:30:36;116.00;;;68.85;;
13731;SDS011;6937;56.096;12.664;2024-03-02T06:33:02;123.57;;;72.88;;
13731;SDS011;6937;56.096;12.664;2024-03-02T06:35:28;115.35;;;68.82;;
13731;SDS011;6937;56.096;12.664;2024-03-02T06:37:54;126.70;;;74.53;;
13731;SDS011;6937;56.096;12.664;2024-03-02T06:40:19;121.63;;;70.97;;
13731;SDS011;6937;56.096;12.664;2024-03-02T06:42:46;128.60;;;74.03;;
13731;SDS011;6937;56.096;12.664;2024-03-02T06:45:11;126.82;;;73.53;;
13731;SDS011;6937;56.096;12.664;2024-03-02T06:47:37;124.95;;;73.18;;
13731;SDS011;6937;56.096;12.664;2024-03-02T06:50:02;125.93;;;72.35;;
13731;SDS011;6937;56.096;12.664;2024-03-02T06:52:28;127.03;;;76.57;;
13731;SDS011;6937;56.096;12.664;2024-03-02T06:54:53;117.82;;;70.22;;
13731;SDS011;6937;56.096;12.664;2024-03-02T06:57:18;124.07;;;73.78;;
13731;SDS011;6937;56.096;12.664;2024-03-02T06:59:45;117.60;;;70.43;;
13731;SDS011;6937;56.096;12.664;2024-03-02T07:02:11;122.93;;;72.53;;
13731;SDS011;6937;56.096;12.664;2024-03-02T07:04:37;113.75;;;69.75;;
13731;SDS011;6937;56.096;12.664;2024-03-02T07:07:02;114.63;;;69.13;;
13731;SDS011;6937;56.096;12.664;2024-03-02T07:09:28;107.38;;;65.90;;
13731;SDS011;6937;56.096;12.664;2024-03-02T07:11:53;102.40;;;65.75;;
13731;SDS011;6937;56.096;12.664;2024-03-02T07:14:19;101.05;;;64.47;;
13731;SDS011;6937;56.096;12.664;2024-03-02T07:16:44;103.40;;;63.35;;
13731;SDS011;6937;56.096;12.664;2024-03-02T07:19:09;92.70;;;60.63;;
13731;SDS011;6937;56.096;12.664;2024-03-02T07:21:35;93.57;;;62.95;;
13731;SDS011;6937;56.096;12.664;2024-03-02T07:24:00;90.43;;;59.15;;
13731;SDS011;6937;56.096;12.664;2024-03-02T07:26:29;84.00;;;56.33;;
13731;SDS011;6937;56.096;12.664;2024-03-02T07:28:56;81.68;;;57.00;;
13731;SDS011;6937;56.096;12.664;2024-03-02T07:31:21;86.35;;;56.70;;
13731;SDS011;6937;56.096;12.664;2024-03-02T07:33:47;80.88;;;57.08;;
13731;SDS011;6937;56.096;12.664;2024-03-02T07:36:12;79.57;;;53.22;;
13731;SDS011;6937;56.096;12.664;2024-03-02T07:38:38;85.07;;;57.70;;
13731;SDS011;6937;56.096;12.664;2024-03-02T07:41:03;77.63;;;55.13;;
13731;SDS011;6937;56.096;12.664;2024-03-02T07:43:29;77.70;;;53.10;;
13731;SDS011;6937;56.096;12.664;2024-03-02T07:45:56;76.10;;;51.60;;
13731;SDS011;6937;56.096;12.664;2024-03-02T07:48:22;73.95;;;51.78;;
13731;SDS011;6937;56.096;12.664;2024-03-02T07:50:47;76.55;;;53.60;;
13731;SDS011;6937;56.096;12.664;2024-03-02T07:53:13;65.05;;;47.30;;
13731;SDS011;6937;56.096;12.664;2024-03-02T07:55:39;70.35;;;51.03;;
13731;SDS011;6937;56.096;12.664;2024-03-02T07:58:05;68.22;;;48.08;;
13731;SDS011;6937;56.096;12.664;2024-03-02T08:00:31;60.00;;;45.63;;
13731;SDS011;6937;56.096;12.664;2024-03-02T08:02:57;55.70;;;44.05;;
13731;SDS011;6937;56.096;12.664;2024-03-02T08:05:22;61.92;;;46.63;;
13731;SDS011;6937;56.096;12.664;2024-03-02T08:07:48;52.92;;;43.38;;
13731;SDS011;6937;56.096;12.664;2024-03-02T08:10:17;52.33;;;41.85;;
13731;SDS011;6937;56.096;12.664;2024-03-02T08:12:44;54.58;;;43.00;;
13731;SDS011;6937;56.096;12.664;2024-03-02T08:15:09;48.67;;;40.35;;
13731;SDS011;6937;56.096;12.664;2024-03-02T08:17:34;46.58;;;39.13;;
13731;SDS011;6937;56.096;12.664;2024-03-02T08:20:00;46.95;;;39.13;;
13731;SDS011;6937;56.096;12.664;2024-03-02T08:22:25;46.58;;;40.17;;
13731;SDS011;6937;56.096;12.664;2024-03-02T08:24:51;46.38;;;38.95;;
13731;SDS011;6937;56.096;12.664;2024-03-02T08:27:17;44.85;;;38.22;;
13731;SDS011;6937;56.096;12.664;2024-03-02T08:29:42;46.03;;;38.67;;
13731;SDS011;6937;56.096;12.664;2024-03-02T08:32:08;41.97;;;36.97;;
13731;SDS011;6937;56.096;12.664;2024-03-02T08:34:33;43.40;;;38.58;;
13731;SDS011;6937;56.096;12.664;2024-03-02T08:37:00;42.88;;;37.38;;
13731;SDS011;6937;56.096;12.664;2024-03-02T08:39:27;40.05;;;35.75;;
13731;SDS011;6937;56.096;12.664;2024-03-02T08:41:52;38.55;;;34.25;;
13731;SDS011;6937;56.096;12.664;2024-03-02T08:44:18;39.95;;;35.70;;
13731;SDS011;6937;56.096;12.664;2024-03-02T08:46:44;39.58;;;35.08;;
13731;SDS011;6937;56.096;12.664;2024-03-02T08:49:09;37.45;;;33.38;;
13731;SDS011;6937;56.096;12.664;2024-03-02T08:51:35;36.58;;;32.78;;
13731;SDS011;6937;56.096;12.664;2024-03-02T08:54:00;35.22;;;31.52;;
13731;SDS011;6937;56.096;12.664;2024-03-02T08:56:25;36.00;;;32.30;;
13731;SDS011;6937;56.096;12.664;2024-03-02T08:58:51;36.45;;;32.45;;
13731;SDS011;6937;56.096;12.664;2024-03-02T09:01:17;34.70;;;31.10;;
13731;SDS011;6937;56.096;12.664;2024-03-02T09:03:44;34.20;;;30.60;;
13731;SDS011;6937;56.096;12.664;2024-03-02T09:06:10;34.15;;;30.60;;
13731;SDS011;6937;56.096;12.664;2024-03-02T09:08:36;34.53;;;30.88;;
13731;SDS011;6937;56.096;12.664;2024-03-02T09:11:02;34.63;;;31.02;;
13731;SDS011;6937;56.096;12.664;2024-03-02T09:13:28;35.03;;;31.27;;
13731;SDS011;6937;56.096;12.664;2024-03-02T09:15:54;33.33;;;29.85;;
13731;SDS011;6937;56.096;12.664;2024-03-02T09:18:19;30.67;;;27.45;;
13731;SDS011;6937;56.096;12.664;2024-03-02T09:20:45;33.55;;;29.98;;
13731;SDS011;6937;56.096;12.664;2024-03-02T09:23:11;35.17;;;30.70;;
13731;SDS011;6937;56.096;12.664;2024-03-02T09:25:36;34.70;;;31.05;;
13731;SDS011;6937;56.096;12.664;2024-03-02T09:28:02;33.85;;;30.15;;
13731;SDS011;6937;56.096;12.664;2024-03-02T09:30:28;35.00;;;30.67;;
13731;SDS011;6937;56.096;12.664;2024-03-02T09:32:53;36.83;;;31.48;;
13731;SDS011;6937;56.096;12.664;2024-03-02T09:35:19;36.25;;;30.00;;
13731;SDS011;6937;56.096;12.664;2024-03-02T09:37:44;34.97;;;31.27;;
13731;SDS011;6937;56.096;12.664;2024-03-02T09:40:10;33.47;;;29.85;;
13731;SDS011;6937;56.096;12.664;2024-03-02T09:42:36;35.78;;;30.95;;
13731;SDS011;6937;56.096;12.664;2024-03-02T09:45:02;33.63;;;30.02;;
13731;SDS011;6937;56.096;12.664;2024-03-02T09:47:28;35.00;;;30.88;;
13731;SDS011;6937;56.096;12.664;2024-03-02T09:49:54;31.98;;;28.20;;
13731;SDS011;6937;56.096;12.664;2024-03-02T09:52:21;31.13;;;27.65;;
13731;SDS011;6937;56.096;12.664;2024-03-02T09:54:49;30.17;;;26.88;;
13731;SDS011;6937;56.096;12.664;2024-03-02T09:57:14;32.08;;;28.35;;
13731;SDS011;6937;56.096;12.664;2024-03-02T09:59:40;31.98;;;27.60;;
13731;SDS011;6937;56.096;12.664;2024-03-02T10:02:06;31.10;;;27.60;;
13731;SDS011;6937;56.096;12.664;2024-03-02T10:04:34;30.13;;;26.95;;
13731;SDS011;6937;56.096;12.664;2024-03-02T10:09:36;30.77;;;27.52;;
13731;SDS011;6937;56.096;12.664;2024-03-02T10:12:04;29.35;;;26.25;;
13731;SDS011;6937;56.096;12.664;2024-03-02T10:14:31;31.02;;;27.63;;
13731;SDS011;6937;56.096;12.664;2024-03-02T10:17:01;28.02;;;24.73;;
13731;SDS011;6937;56.096;12.664;2024-03-02T10:19:28;28.85;;;25.85;;
13731;SDS011;6937;56.096;12.664;2024-03-02T10:21:57;28.80;;;25.17;;
13731;SDS011;6937;56.096;12.664;2024-03-02T10:24:24;27.73;;;24.52;;
13731;SDS011;6937;56.096;12.664;2024-03-02T10:26:50;33.30;;;27.38;;
13731;SDS011;6937;56.096;12.664;2024-03-02T10:29:16;34.10;;;27.40;;
13731;SDS011;6937;56.096;12.664;2024-03-02T10:31:43;33.75;;;27.08;;
13731;SDS011;6937;56.096;12.664;2024-03-02T10:34:09;33.95;;;28.10;;
13731;SDS011;6937;56.096;12.664;2024-03-02T10:36:36;35.60;;;28.70;;
13731;SDS011;6937;56.096;12.664;2024-03-02T10:39:05;36.03;;;28.40;;
13731;SDS011;6937;56.096;12.664;2024-03-02T10:41:36;37.90;;;29.58;;
13731;SDS011;6937;56.096;12.664;2024-03-02T10:44:03;36.80;;;29.85;;
13731;SDS011;6937;56.096;12.664;2024-03-02T10:46:30;36.17;;;30.23;;
13731;SDS011;6937;56.096;12.664;2024-03-02T10:48:57;40.25;;;31.48;;
13731;SDS011;6937;56.096;12.664;2024-03-02T10:51:27;37.00;;;30.33;;
13731;SDS011;6937;56.096;12.664;2024-03-02T10:53:56;40.58;;;31.73;;
13731;SDS011;6937;56.096;12.664;2024-03-02T10:56:29;45.95;;;33.22;;
13731;SDS011;6937;56.096;12.664;2024-03-02T10:59:03;44.20;;;34.08;;
13731;SDS011;6937;56.096;12.664;2024-03-02T11:01:36;42.78;;;32.42;;
13731;SDS011;6937;56.096;12.664;2024-03-02T11:04:04;45.97;;;34.03;;
13731;SDS011;6937;56.096;12.664;2024-03-02T11:06:33;52.72;;;36.17;;
13731;SDS011;6937;56.096;12.664;2024-03-02T11:09:04;55.42;;;37.75;;
13731;SDS011;6937;56.096;12.664;2024-03-02T11:11:34;52.42;;;36.88;;
13731;SDS011;6937;56.096;12.664;2024-03-02T11:14:02;64.13;;;40.30;;
13731;SDS011;6937;56.096;12.664;2024-03-02T11:16:36;66.38;;;41.88;;
13731;SDS011;6937;56.096;12.664;2024-03-02T11:19:10;73.30;;;44.17;;
13731;SDS011;6937;56.096;12.664;2024-03-02T11:21:37;71.47;;;45.53;;
13731;SDS011;6937;56.096;12.664;2024-03-02T11:26:48;85.82;;;46.88;;
13731;SDS011;6937;56.096;12.664;2024-03-02T11:32:04;69.60;;;45.13;;
13731;SDS011;6937;56.096;12.664;2024-03-02T11:34:44;90.90;;;49.05;;
13731;SDS011;6937;56.096;12.664;2024-03-02T11:37:18;76.53;;;45.45;;
13731;SDS011;6937;56.096;12.664;2024-03-02T11:39:45;85.28;;;48.90;;
13731;SDS011;6937;56.096;12.664;2024-03-02T11:42:12;82.03;;;47.83;;
13731;SDS011;6937;56.096;12.664;2024-03-02T11:44:50;93.68;;;50.17;;
13731;SDS011;6937;56.096;12.664;2024-03-02T11:47:16;75.90;;;45.42;;
13731;SDS011;6937;56.096;12.664;2024-03-02T11:49:49;83.55;;;48.75;;
13731;SDS011;6937;56.096;12.664;2024-03-02T11:52:16;93.13;;;50.45;;
13731;SDS011;6937;56.096;12.664;2024-03-02T11:54:43;98.72;;;50.88;;
13731;SDS011;6937;56.096;12.664;2024-03-02T11:57:20;90.93;;;49.53;;
13731;SDS011;6937;56.096;12.664;2024-03-02T11:59:49;93.97;;;50.22;;
13731;SDS011;6937;56.096;12.664;2024-03-02T12:02:15;91.05;;;49.80;;
13731;SDS011;6937;56.096;12.664;2024-03-02T12:04:43;103.32;;;52.85;;
13731;SDS011;6937;56.096;12.664;2024-03-02T12:07:10;88.75;;;49.13;;
13731;SDS011;6937;56.096;12.664;2024-03-02T12:09:36;87.95;;;50.03;;
13731;SDS011;6937;56.096;12.664;2024-03-02T12:12:08;100.57;;;53.90;;
13731;SDS011;6937;56.096;12.664;2024-03-02T12:14:38;115.55;;;56.15;;
13731;SDS011;6937;56.096;12.664;2024-03-02T12:17:04;97.88;;;52.88;;
13731;SDS011;6937;56.096;12.664;2024-03-02T12:19:30;89.63;;;50.33;;
13731;SDS011;6937;56.096;12.664;2024-03-02T12:21:57;90.53;;;51.20;;
13731;SDS011;6937;56.096;12.664;2024-03-02T12:24:23;88.75;;;51.42;;
13731;SDS011;6937;56.096;12.664;2024-03-02T12:26:50;83.53;;;49.45;;
13731;SDS011;6937;56.096;12.664;2024-03-02T12:29:15;103.10;;;53.10;;
13731;SDS011;6937;56.096;12.664;2024-03-02T12:31:42;88.05;;;49.67;;
13731;SDS011;6937;56.096;12.664;2024-03-02T12:34:11;93.60;;;51.20;;
13731;SDS011;6937;56.096;12.664;2024-03-02T12:36:39;93.07;;;49.88;;
13731;SDS011;6937;56.096;12.664;2024-03-02T12:39:06;82.50;;;47.05;;
13731;SDS011;6937;56.096;12.664;2024-03-02T12:41:33;93.75;;;50.45;;
13731;SDS011;6937;56.096;12.664;2024-03-02T12:44:01;106.70;;;51.58;;
13731;SDS011;6937;56.096;12.664;2024-03-02T12:46:26;94.70;;;49.15;;
13731;SDS011;6937;56.096;12.664;2024-03-02T12:48:52;100.97;;;50.95;;
13731;SDS011;6937;56.096;12.664;2024-03-02T12:51:18;100.78;;;49.70;;
13731;SDS011;6937;56.096;12.664;2024-03-02T12:53:43;91.78;;;48.80;;
13731;SDS011;6937;56.096;12.664;2024-03-02T12:56:09;77.60;;;44.55;;
13731;SDS011;6937;56.096;12.664;2024-03-02T12:58:38;73.93;;;44.72;;
13731;SDS011;6937;56.096;12.664;2024-03-02T13:01:06;93.72;;;47.80;;
13731;SDS011;6937;56.096;12.664;2024-03-02T13:03:37;91.57;;;47.67;;
13731;SDS011;6937;56.096;12.664;2024-03-02T13:06:03;79.20;;;43.83;;
13731;SDS011;6937;56.096;12.664;2024-03-02T13:08:33;85.47;;;46.55;;
13731;SDS011;6937;56.096;12.664;2024-03-02T13:10:58;78.72;;;43.17;;
13731;SDS011;6937;56.096;12.664;2024-03-02T13:13:24;76.50;;;44.25;;
13731;SDS011;6937;56.096;12.664;2024-03-02T13:15:49;87.78;;;44.08;;
13731;SDS011;6937;56.096;12.664;2024-03-02T13:18:17;81.88;;;44.03;;
13731;SDS011;6937;56.096;12.664;2024-03-02T13:20:43;80.47;;;43.70;;
13731;SDS011;6937;56.096;12.664;2024-03-02T13:23:08;113.85;;;48.13;;
13731;SDS011;6937;56.096;12.664;2024-03-02T13:25:35;72.10;;;42.03;;
13731;SDS011;6937;56.096;12.664;2024-03-02T13:28:00;76.60;;;41.85;;
13731;SDS011;6937;56.096;12.664;2024-03-02T13:30:26;66.63;;;39.08;;
13731;SDS011;6937;56.096;12.664;2024-03-02T13:32:51;75.78;;;40.80;;
13731;SDS011;6937;56.096;12.664;2024-03-02T13:35:18;92.55;;;43.97;;
13731;SDS011;6937;56.096;12.664;2024-03-02T13:37:43;96.70;;;44.22;;
13731;SDS011;6937;56.096;12.664;2024-03-02T13:40:09;68.40;;;39.88;;
13731;SDS011;6937;56.096;12.664;2024-03-02T13:42:39;92.03;;;43.95;;
13731;SDS011;6937;56.096;12.664;2024-03-02T13:45:05;95.05;;;44.35;;
13731;SDS011;6937;56.096;12.664;2024-03-02T13:47:31;101.45;;;44.75;;
13731;SDS011;6937;56.096;12.664;2024-03-02T13:49:57;67.28;;;38.80;;
13731;SDS011;6937;56.096;12.664;2024-03-02T13:52:23;74.93;;;40.75;;
13731;SDS011;6937;56.096;12.664;2024-03-02T13:54:50;91.35;;;44.80;;
13731;SDS011;6937;56.096;12.664;2024-03-02T13:57:17;83.20;;;43.95;;
13731;SDS011;6937;56.096;12.664;2024-03-02T13:59:44;83.20;;;41.85;;
13731;SDS011;6937;56.096;12.664;2024-03-02T14:02:10;103.22;;;45.95;;
13731;SDS011;6937;56.096;12.664;2024-03-02T14:04:37;75.75;;;41.35;;
13731;SDS011;6937;56.096;12.664;2024-03-02T14:07:03;87.15;;;41.50;;
13731;SDS011;6937;56.096;12.664;2024-03-02T14:09:32;88.93;;;41.38;;
13731;SDS011;6937;56.096;12.664;2024-03-02T14:11:57;75.78;;;40.67;;
13731;SDS011;6937;56.096;12.664;2024-03-02T14:14:22;102.72;;;45.80;;
13731;SDS011;6937;56.096;12.664;2024-03-02T14:16:48;84.15;;;41.85;;
13731;SDS011;6937;56.096;12.664;2024-03-02T14:19:14;101.57;;;45.58;;
13731;SDS011;6937;56.096;12.664;2024-03-02T14:21:39;90.55;;;44.08;;
13731;SDS011;6937;56.096;12.664;2024-03-02T14:24:05;99.57;;;45.22;;